createdAt,value
2018-02-27T00:00:13.435Z,-8.56
2018-02-27T00:01:13.453Z,-8.57
2018-02-27T00:02:13.440Z,-8.60
2018-02-27T00:03:13.454Z,-8.57
2018-02-27T00:04:13.457Z,-8.62
2018-02-27T00:05:13.454Z,-8.59
2018-02-27T00:06:13.460Z,-8.65
2018-02-27T00:07:13.466Z,-8.65
2018-02-27T00:08:13.462Z,-8.71
2018-02-27T00:09:13.469Z,-8.62
2018-02-27T00:10:13.493Z,-8.65
2018-02-27T00:11:13.479Z,-8.65
2018-02-27T00:12:13.490Z,-8.70
2018-02-27T00:13:13.481Z,-8.65
2018-02-27T00:14:13.487Z,-8.68
2018-02-27T00:15:13.489Z,-8.70
2018-02-27T00:16:13.495Z,-8.70
2018-02-27T00:17:13.513Z,-8.71
2018-02-27T00:18:13.495Z,-8.74
2018-02-27T00:19:13.510Z,-8.78
2018-02-27T00:20:13.507Z,-8.75
2018-02-27T00:21:13.515Z,-8.75
2018-02-27T00:22:13.509Z,-8.77
2018-02-27T00:23:13.518Z,-8.74
2018-02-27T00:24:13.522Z,-8.73
2018-02-27T00:25:13.525Z,-8.78
2018-02-27T00:26:13.529Z,-8.84
2018-02-27T00:27:13.531Z,-8.74
2018-02-27T00:28:13.544Z,-8.73
2018-02-27T00:29:13.538Z,-8.75
2018-02-27T00:30:13.550Z,-8.77
2018-02-27T00:31:13.535Z,-8.84
2018-02-27T00:32:13.543Z,-8.73
2018-02-27T00:33:13.564Z,-8.82
2018-02-27T00:34:13.548Z,-8.80
2018-02-27T00:35:13.560Z,-8.80
2018-02-27T00:36:13.558Z,-8.80
2018-02-27T00:37:13.566Z,-8.78
2018-02-27T00:38:13.571Z,-8.86
2018-02-27T00:39:13.570Z,-8.77
2018-02-27T00:40:13.566Z,-8.77
2018-02-27T00:41:13.583Z,-8.86
2018-02-27T00:42:13.582Z,-8.84
2018-02-27T00:43:13.592Z,-8.88
2018-02-27T00:44:13.590Z,-8.85
2018-02-27T00:45:13.584Z,-8.85
2018-02-27T00:46:13.604Z,-8.89
2018-02-27T00:47:13.590Z,-8.86
2018-02-27T00:48:13.605Z,-8.89
2018-02-27T00:49:13.600Z,-8.91
2018-02-27T00:50:13.604Z,-8.84
2018-02-27T00:51:13.618Z,-8.85
2018-02-27T00:52:13.618Z,-8.89
2018-02-27T00:53:13.626Z,-8.95
2018-02-27T00:54:13.617Z,-9.02
2018-02-27T00:55:13.623Z,-8.98
2018-02-27T00:56:13.618Z,-9.02
2018-02-27T00:57:13.631Z,-8.94
2018-02-27T00:58:13.627Z,-9.02
2018-02-27T00:59:13.639Z,-9.03
2018-02-27T01:00:13.647Z,-9.02
2018-02-27T01:01:13.640Z,-9.02
2018-02-27T01:02:13.654Z,-8.99
2018-02-27T01:03:13.649Z,-9.04
2018-02-27T01:04:13.661Z,-9.09
2018-02-27T01:05:13.656Z,-9.09
2018-02-27T01:06:13.657Z,-9.07
2018-02-27T01:07:13.665Z,-9.10
2018-02-27T01:08:13.668Z,-9.07
2018-02-27T01:09:13.672Z,-9.07
2018-02-27T01:10:13.674Z,-9.12
2018-02-27T01:11:13.686Z,-9.21
2018-02-27T01:12:13.676Z,-9.12
2018-02-27T01:13:13.695Z,-9.13
2018-02-27T01:14:13.679Z,-9.10
2018-02-27T01:15:13.697Z,-9.16
2018-02-27T01:16:13.688Z,-9.13
2018-02-27T01:17:13.699Z,-9.23
2018-02-27T01:18:13.696Z,-9.24
2018-02-27T01:19:13.700Z,-9.14
2018-02-27T01:20:13.717Z,-9.20
2018-02-27T01:21:13.710Z,-9.17
2018-02-27T01:22:13.736Z,-9.23
2018-02-27T01:23:13.711Z,-9.23
2018-02-27T01:24:13.719Z,-9.17
2018-02-27T01:25:13.727Z,-9.24
2018-02-27T01:26:13.723Z,-9.27
2018-02-27T01:27:13.723Z,-9.27
2018-02-27T01:28:13.741Z,-9.25
2018-02-27T01:29:13.724Z,-9.33
2018-02-27T01:30:13.740Z,-9.34
2018-02-27T01:31:13.732Z,-9.35
2018-02-27T01:32:13.741Z,-9.34
2018-02-27T01:33:13.742Z,-9.30
2018-02-27T01:34:13.754Z,-9.30
2018-02-27T01:35:13.757Z,-9.34
2018-02-27T01:36:13.766Z,-9.33
2018-02-27T01:37:13.760Z,-9.34
2018-02-27T01:38:13.767Z,-9.34
2018-02-27T01:39:13.776Z,-9.39
2018-02-27T01:40:13.769Z,-9.39
2018-02-27T01:41:13.772Z,-9.33
2018-02-27T01:42:13.770Z,-9.34
2018-02-27T01:43:13.787Z,-9.37
2018-02-27T01:44:13.780Z,-9.28
2018-02-27T01:45:13.781Z,-9.35
2018-02-27T01:46:13.790Z,-9.41
2018-02-27T01:47:13.791Z,-9.43
2018-02-27T01:48:13.793Z,-9.37
2018-02-27T01:49:13.807Z,-9.41
2018-02-27T01:50:13.801Z,-9.34
2018-02-27T01:51:13.807Z,-9.31
2018-02-27T01:52:13.810Z,-9.41
2018-02-27T01:53:13.801Z,-9.41
2018-02-27T01:54:13.815Z,-9.30
2018-02-27T01:55:13.807Z,-9.30
2018-02-27T01:56:13.822Z,-9.30
2018-02-27T01:57:13.817Z,-9.37
2018-02-27T01:58:13.826Z,-9.33
2018-02-27T01:59:13.823Z,-9.37
2018-02-27T02:00:13.836Z,-9.39
2018-02-27T02:01:13.822Z,-9.35
2018-02-27T02:02:13.836Z,-9.41
2018-02-27T02:03:13.845Z,-9.45
2018-02-27T02:04:13.841Z,-9.47
2018-02-27T02:05:13.855Z,-9.43
2018-02-27T02:06:13.847Z,-9.45
2018-02-27T02:07:13.853Z,-9.43
2018-02-27T02:08:13.850Z,-9.45
2018-02-27T02:09:13.855Z,-9.41
2018-02-27T02:10:13.857Z,-9.50
2018-02-27T02:11:13.863Z,-9.50
2018-02-27T02:12:13.857Z,-9.46
2018-02-27T02:13:13.870Z,-9.35
2018-02-27T02:14:13.865Z,-9.47
2018-02-27T02:15:13.878Z,-9.47
2018-02-27T02:16:13.874Z,-9.46
2018-02-27T02:17:13.878Z,-9.49
2018-02-27T02:18:13.879Z,-9.45
2018-02-27T02:19:13.882Z,-9.45
2018-02-27T02:20:13.880Z,-9.46
2018-02-27T02:21:13.894Z,-9.47
2018-02-27T02:22:13.899Z,-9.52
2018-02-27T02:23:13.898Z,-9.50
2018-02-27T02:24:13.908Z,-9.49
2018-02-27T02:25:13.902Z,-9.47
2018-02-27T02:26:13.911Z,-9.43
2018-02-27T02:27:13.912Z,-9.45
2018-02-27T02:28:13.912Z,-9.47
2018-02-27T02:29:13.912Z,-9.52
2018-02-27T02:30:13.919Z,-9.60
2018-02-27T02:31:13.920Z,-9.64
2018-02-27T02:32:13.930Z,-9.55
2018-02-27T02:33:13.925Z,-9.63
2018-02-27T02:34:13.939Z,-9.60
2018-02-27T02:35:13.924Z,-9.60
2018-02-27T02:36:13.935Z,-9.55
2018-02-27T02:37:13.944Z,-9.60
2018-02-27T02:38:13.949Z,-9.58
2018-02-27T02:39:13.958Z,-9.58
2018-02-27T02:40:13.957Z,-9.64
2018-02-27T02:41:13.955Z,-9.53
2018-02-27T02:42:13.954Z,-9.58
2018-02-27T02:43:13.959Z,-9.61
2018-02-27T02:44:13.956Z,-9.56
2018-02-27T02:45:13.969Z,-9.64
2018-02-27T02:46:13.966Z,-9.70
2018-02-27T02:47:13.982Z,-9.64
2018-02-27T02:48:13.968Z,-9.68
2018-02-27T02:49:13.973Z,-9.73
2018-02-27T02:50:13.983Z,-9.65
2018-02-27T02:51:13.986Z,-9.71
2018-02-27T02:52:13.978Z,-9.67
2018-02-27T02:53:13.995Z,-9.71
2018-02-27T02:54:13.987Z,-9.67
2018-02-27T02:55:13.994Z,-9.63
2018-02-27T02:56:13.996Z,-9.73
2018-02-27T02:57:13.994Z,-9.78
2018-02-27T02:58:13.995Z,-9.70
2018-02-27T02:59:14.000Z,-9.79
2018-02-27T03:00:13.996Z,-9.64
2018-02-27T03:01:14.010Z,-9.73
2018-02-27T03:02:14.007Z,-9.64
2018-02-27T03:03:14.022Z,-9.74
2018-02-27T03:04:14.014Z,-9.76
2018-02-27T03:05:14.021Z,-9.73
2018-02-27T03:06:14.038Z,-9.78
2018-02-27T03:07:14.026Z,-9.73
2018-02-27T03:08:14.032Z,-9.76
2018-02-27T03:09:14.030Z,-9.86
2018-02-27T03:10:14.043Z,-9.79
2018-02-27T03:11:14.045Z,-9.81
2018-02-27T03:12:14.046Z,-9.86
2018-02-27T03:13:14.045Z,-9.84
2018-02-27T03:14:14.056Z,-9.79
2018-02-27T03:15:14.045Z,-9.92
2018-02-27T03:16:14.053Z,-9.81
2018-02-27T03:17:14.054Z,-9.85
2018-02-27T03:18:14.065Z,-9.84
2018-02-27T03:19:14.057Z,-9.84
2018-02-27T03:20:14.067Z,-9.85
2018-02-27T03:21:14.058Z,-9.88
2018-02-27T03:22:14.078Z,-9.88
2018-02-27T03:23:14.067Z,-9.81
2018-02-27T03:24:14.075Z,-9.91
2018-02-27T03:25:14.076Z,-9.84
2018-02-27T03:26:14.108Z,-9.88
2018-02-27T03:27:14.079Z,-9.84
2018-02-27T03:28:14.087Z,-9.97
2018-02-27T03:29:14.086Z,-9.97
2018-02-27T03:30:14.090Z,-9.91
2018-02-27T03:31:14.092Z,-9.97
2018-02-27T03:32:14.111Z,-9.96
2018-02-27T03:33:14.094Z,-9.99
2018-02-27T03:34:14.111Z,-9.97
2018-02-27T03:35:14.108Z,-9.96
2018-02-27T03:36:14.104Z,-9.97
2018-02-27T03:37:14.106Z,-10.03
2018-02-27T03:38:14.117Z,-10.02
2018-02-27T03:39:14.124Z,-10.02
2018-02-27T03:40:14.121Z,-10.03
2018-02-27T03:41:14.132Z,-10.03
2018-02-27T03:42:14.132Z,-10.02
2018-02-27T03:43:14.128Z,-10.12
2018-02-27T03:44:14.125Z,-10.14
2018-02-27T03:45:14.137Z,-10.07
2018-02-27T03:46:14.131Z,-10.12
2018-02-27T03:47:14.144Z,-10.10
2018-02-27T03:48:14.144Z,-10.07
2018-02-27T03:49:14.144Z,-10.15
2018-02-27T03:50:14.146Z,-10.18
2018-02-27T03:51:14.151Z,-10.24
2018-02-27T03:52:14.167Z,-10.24
2018-02-27T03:53:14.166Z,-10.24
2018-02-27T03:54:14.152Z,-10.18
2018-02-27T03:55:14.172Z,-10.20
2018-02-27T03:56:14.165Z,-10.21
2018-02-27T03:57:14.166Z,-10.14
2018-02-27T03:58:14.173Z,-10.30
2018-02-27T03:59:14.172Z,-10.28
2018-02-27T04:00:14.174Z,-10.35
2018-02-27T04:01:14.184Z,-10.27
2018-02-27T04:02:14.182Z,-10.36
2018-02-27T04:03:14.188Z,-10.24
2018-02-27T04:04:14.183Z,-10.30
2018-02-27T04:05:14.192Z,-10.24
2018-02-27T04:06:14.188Z,-10.34
2018-02-27T04:07:14.192Z,-10.25
2018-02-27T04:08:14.229Z,-10.30
2018-02-27T04:09:14.211Z,-10.36
2018-02-27T04:10:14.197Z,-10.27
2018-02-27T04:11:14.213Z,-10.31
2018-02-27T04:12:14.206Z,-10.25
2018-02-27T04:13:14.210Z,-10.31
2018-02-27T04:14:14.216Z,-10.28
2018-02-27T04:15:14.221Z,-10.28
2018-02-27T04:16:14.209Z,-10.31
2018-02-27T04:17:14.223Z,-10.35
2018-02-27T04:18:14.216Z,-10.36
2018-02-27T04:19:14.236Z,-10.34
2018-02-27T04:20:14.232Z,-10.34
2018-02-27T04:21:14.231Z,-10.38
2018-02-27T04:22:14.235Z,-10.35
2018-02-27T04:23:14.242Z,-10.38
2018-02-27T04:24:14.233Z,-10.38
2018-02-27T04:25:14.250Z,-10.42
2018-02-27T04:26:14.239Z,-10.39
2018-02-27T04:27:14.250Z,-10.42
2018-02-27T04:28:14.246Z,-10.39
2018-02-27T04:29:14.250Z,-10.45
2018-02-27T04:30:14.260Z,-10.45
2018-02-27T04:31:14.262Z,-10.49
2018-02-27T04:32:14.254Z,-10.46
2018-02-27T04:33:14.267Z,-10.52
2018-02-27T04:34:14.265Z,-10.48
2018-02-27T04:35:14.269Z,-10.48
2018-02-27T04:36:14.267Z,-10.48
2018-02-27T04:37:14.270Z,-10.49
2018-02-27T04:38:14.274Z,-10.53
2018-02-27T04:39:14.283Z,-10.42
2018-02-27T04:40:14.275Z,-10.52
2018-02-27T04:41:14.294Z,-10.56
2018-02-27T04:42:14.288Z,-10.59
2018-02-27T04:43:14.292Z,-10.56
2018-02-27T04:44:14.287Z,-10.63
2018-02-27T04:45:14.301Z,-10.59
2018-02-27T04:46:14.302Z,-10.67
2018-02-27T04:47:14.300Z,-10.69
2018-02-27T04:48:14.302Z,-10.62
2018-02-27T04:49:14.309Z,-10.69
2018-02-27T04:50:14.310Z,-10.60
2018-02-27T04:51:14.317Z,-10.65
2018-02-27T04:52:14.317Z,-10.62
2018-02-27T04:53:14.306Z,-10.73
2018-02-27T04:54:14.323Z,-10.62
2018-02-27T04:55:14.327Z,-10.73
2018-02-27T04:56:14.322Z,-10.66
2018-02-27T04:57:14.325Z,-10.71
2018-02-27T04:58:14.323Z,-10.67
2018-02-27T04:59:14.329Z,-10.71
2018-02-27T05:00:14.344Z,-10.73
2018-02-27T05:01:14.324Z,-10.69
2018-02-27T05:02:14.343Z,-10.76
2018-02-27T05:03:14.336Z,-10.69
2018-02-27T05:04:14.340Z,-10.67
2018-02-27T05:05:14.336Z,-10.67
2018-02-27T05:06:14.350Z,-10.67
2018-02-27T05:07:14.343Z,-10.66
2018-02-27T05:08:14.351Z,-10.67
2018-02-27T05:09:14.343Z,-10.73
2018-02-27T05:10:14.359Z,-10.80
2018-02-27T05:11:14.357Z,-10.80
2018-02-27T05:12:14.360Z,-10.83
2018-02-27T05:13:14.380Z,-10.88
2018-02-27T05:14:14.363Z,-10.77
2018-02-27T05:15:14.364Z,-10.90
2018-02-27T05:16:14.372Z,-10.83
2018-02-27T05:17:14.371Z,-10.88
2018-02-27T05:18:14.384Z,-10.92
2018-02-27T05:19:14.372Z,-10.90
2018-02-27T05:20:14.382Z,-10.80
2018-02-27T05:21:14.388Z,-10.85
2018-02-27T05:22:14.375Z,-10.90
2018-02-27T05:23:14.389Z,-10.95
2018-02-27T05:24:14.387Z,-10.95
2018-02-27T05:25:14.389Z,-10.95
2018-02-27T05:26:14.395Z,-10.92
2018-02-27T05:27:14.391Z,-11.02
2018-02-27T05:28:14.389Z,-10.96
2018-02-27T05:29:14.399Z,-10.97
2018-02-27T05:30:14.394Z,-11.00
2018-02-27T05:31:14.407Z,-11.00
2018-02-27T05:32:14.405Z,-11.03
2018-02-27T05:33:14.409Z,-10.99
2018-02-27T05:34:14.408Z,-10.99
2018-02-27T05:35:14.419Z,-11.05
2018-02-27T05:36:14.417Z,-10.99
2018-02-27T05:37:14.421Z,-11.05
2018-02-27T05:38:14.427Z,-11.05
2018-02-27T05:39:14.423Z,-11.03
2018-02-27T05:40:14.428Z,-10.99
2018-02-27T05:41:14.452Z,-10.97
2018-02-27T05:42:14.426Z,-10.97
2018-02-27T05:43:14.440Z,-11.00
2018-02-27T05:44:14.440Z,-10.97
2018-02-27T05:45:14.440Z,-11.00
2018-02-27T05:46:14.447Z,-11.00
2018-02-27T05:47:14.444Z,-10.96
2018-02-27T05:48:14.441Z,-11.00
2018-02-27T05:49:14.456Z,-10.96
2018-02-27T05:50:14.447Z,-10.99
2018-02-27T05:51:14.457Z,-10.95
2018-02-27T05:52:14.456Z,-10.96
2018-02-27T05:53:14.451Z,-10.99
2018-02-27T05:54:14.462Z,-11.00
2018-02-27T05:55:14.455Z,-11.05
2018-02-27T05:56:14.466Z,-10.97
2018-02-27T05:57:14.464Z,-10.99
2018-02-27T05:58:14.469Z,-11.06
2018-02-27T05:59:14.475Z,-10.99
2018-02-27T06:00:14.485Z,-11.06
2018-02-27T06:01:14.483Z,-11.02
2018-02-27T06:02:14.484Z,-10.95
2018-02-27T06:03:14.477Z,-10.95
2018-02-27T06:04:14.490Z,-10.95
2018-02-27T06:05:14.484Z,-11.00
2018-02-27T06:06:14.489Z,-11.03
2018-02-27T06:07:14.488Z,-11.10
2018-02-27T06:08:14.520Z,-10.93
2018-02-27T06:09:14.490Z,-10.95
2018-02-27T06:10:14.503Z,-10.83
2018-02-27T06:11:14.520Z,-10.96
2018-02-27T06:12:14.510Z,-10.93
2018-02-27T06:13:14.505Z,-10.88
2018-02-27T06:14:14.512Z,-10.88
2018-02-27T06:15:14.512Z,-10.87
2018-02-27T06:16:14.521Z,-10.88
2018-02-27T06:17:14.517Z,-10.81
2018-02-27T06:18:14.531Z,-10.88
2018-02-27T06:19:14.519Z,-10.85
2018-02-27T06:20:14.532Z,-10.85
2018-02-27T06:21:14.535Z,-10.87
2018-02-27T06:22:14.539Z,-10.90
2018-02-27T06:23:14.538Z,-10.87
2018-02-27T06:24:14.541Z,-10.87
2018-02-27T06:25:14.538Z,-10.90
2018-02-27T06:26:14.549Z,-10.85
2018-02-27T06:27:14.539Z,-10.87
2018-02-27T06:28:14.548Z,-10.80
2018-02-27T06:29:14.549Z,-10.77
2018-02-27T06:30:14.552Z,-10.83
2018-02-27T06:31:14.572Z,-10.74
2018-02-27T06:32:14.556Z,-10.76
2018-02-27T06:33:14.554Z,-10.67
2018-02-27T06:34:14.569Z,-10.65
2018-02-27T06:35:14.564Z,-10.71
2018-02-27T06:36:14.568Z,-10.69
2018-02-27T06:37:14.575Z,-10.71
2018-02-27T06:38:14.572Z,-10.69
2018-02-27T06:39:14.572Z,-10.73
2018-02-27T06:40:14.584Z,-10.55
2018-02-27T06:41:14.573Z,-10.62
2018-02-27T06:42:14.588Z,-10.65
2018-02-27T06:43:14.586Z,-10.63
2018-02-27T06:44:14.590Z,-10.66
2018-02-27T06:45:14.592Z,-10.59
2018-02-27T06:46:14.593Z,-10.56
2018-02-27T06:47:14.634Z,-10.53
2018-02-27T06:48:14.602Z,-10.56
2018-02-27T06:49:14.596Z,-10.57
2018-02-27T06:50:14.616Z,-10.46
2018-02-27T06:51:14.615Z,-10.48
2018-02-27T06:52:14.612Z,-10.42
2018-02-27T06:53:14.619Z,-10.44
2018-02-27T06:54:14.614Z,-10.35
2018-02-27T06:55:14.673Z,-10.38
2018-02-27T06:56:14.623Z,-10.30
2018-02-27T06:57:14.618Z,-10.31
2018-02-27T06:58:14.648Z,-10.38
2018-02-27T06:59:14.630Z,-10.31
2018-02-27T07:00:14.637Z,-10.28
2018-02-27T07:01:14.640Z,-10.20
2018-02-27T07:02:14.638Z,-10.23
2018-02-27T07:03:14.640Z,-10.18
2018-02-27T07:04:14.654Z,-10.15
2018-02-27T07:05:14.646Z,-10.05
2018-02-27T07:06:14.650Z,-10.03
2018-02-27T07:07:14.661Z,-9.94
2018-02-27T07:08:14.653Z,-9.89
2018-02-27T07:09:14.675Z,-9.82
2018-02-27T07:10:14.674Z,-9.85
2018-02-27T07:11:14.672Z,-9.78
2018-02-27T07:12:14.668Z,-9.65
2018-02-27T07:13:14.674Z,-9.63
2018-02-27T07:14:14.679Z,-9.64
2018-02-27T07:15:14.684Z,-9.60
2018-02-27T07:16:14.693Z,-9.50
2018-02-27T07:17:14.700Z,-9.46
2018-02-27T07:18:14.691Z,-9.45
2018-02-27T07:19:14.692Z,-9.30
2018-02-27T07:20:14.712Z,-9.37
2018-02-27T07:21:14.694Z,-9.34
2018-02-27T07:22:14.707Z,-9.23
2018-02-27T07:23:14.721Z,-9.21
2018-02-27T07:24:14.711Z,-9.25
2018-02-27T07:25:14.728Z,-9.07
2018-02-27T07:26:14.730Z,-9.10
2018-02-27T07:27:14.724Z,-8.99
2018-02-27T07:28:14.734Z,-8.99
2018-02-27T07:29:14.733Z,-8.86
2018-02-27T07:30:14.747Z,-8.88
2018-02-27T07:31:14.739Z,-8.84
2018-02-27T07:32:14.752Z,-8.82
2018-02-27T07:33:14.760Z,-8.70
2018-02-27T07:34:14.753Z,-8.67
2018-02-27T07:35:14.766Z,-8.57
2018-02-27T07:36:14.775Z,-8.59
2018-02-27T07:37:14.763Z,-8.59
2018-02-27T07:38:14.772Z,-8.39
2018-02-27T07:39:14.773Z,-8.41
2018-02-27T07:40:14.773Z,-8.39
2018-02-27T07:41:14.793Z,-8.26
2018-02-27T07:42:14.782Z,-8.26
2018-02-27T07:43:14.808Z,-8.24
2018-02-27T07:44:14.809Z,-8.15
2018-02-27T07:45:14.797Z,-8.10
2018-02-27T07:46:14.813Z,-7.99
2018-02-27T07:47:14.820Z,-7.95
2018-02-27T07:48:14.815Z,-7.94
2018-02-27T07:49:14.818Z,-7.85
2018-02-27T07:50:14.836Z,-7.75
2018-02-27T07:51:14.832Z,-7.77
2018-02-27T07:52:14.831Z,-7.71
2018-02-27T07:53:14.843Z,-7.55
2018-02-27T07:54:14.838Z,-7.62
2018-02-27T07:55:14.859Z,-7.46
2018-02-27T07:56:14.866Z,-7.46
2018-02-27T07:57:14.870Z,-7.39
2018-02-27T07:58:14.870Z,-7.34
2018-02-27T07:59:14.869Z,-7.28
2018-02-27T08:00:14.883Z,-7.30
2018-02-27T08:01:14.890Z,-7.25
2018-02-27T08:02:14.882Z,-7.25
2018-02-27T08:03:14.895Z,-7.10
2018-02-27T08:04:14.911Z,-7.27
2018-02-27T08:05:14.950Z,-7.13
2018-02-27T08:06:14.919Z,-7.14
2018-02-27T08:07:14.916Z,-7.14
2018-02-27T08:08:14.919Z,-7.06
2018-02-27T08:09:14.931Z,-7.13
2018-02-27T08:10:14.928Z,-7.06
2018-02-27T08:11:14.950Z,-7.09
2018-02-27T08:12:14.938Z,-7.06
2018-02-27T08:13:14.951Z,-7.02
2018-02-27T08:14:14.957Z,-7.00
2018-02-27T08:15:14.954Z,-6.99
2018-02-27T08:16:14.991Z,-6.96
2018-02-27T08:17:14.975Z,-6.92
2018-02-27T08:18:14.982Z,-6.86
2018-02-27T08:19:14.983Z,-6.91
2018-02-27T08:20:14.990Z,-6.82
2018-02-27T08:21:14.991Z,-6.84
2018-02-27T08:22:14.990Z,-6.85
2018-02-27T08:23:15.006Z,-6.78
2018-02-27T08:24:15.008Z,-6.78
2018-02-27T08:25:15.023Z,-6.78
2018-02-27T08:26:15.012Z,-6.78
2018-02-27T08:27:15.023Z,-6.73
2018-02-27T08:28:15.032Z,-6.78
2018-02-27T08:29:15.024Z,-6.75
2018-02-27T08:30:15.045Z,-6.64
2018-02-27T08:31:15.041Z,-6.64
2018-02-27T08:32:15.049Z,-6.66
2018-02-27T08:33:15.052Z,-6.58
2018-02-27T08:34:15.084Z,-6.49
2018-02-27T08:35:15.068Z,-6.56
2018-02-27T08:36:15.065Z,-6.49
2018-02-27T08:37:15.068Z,-6.41
2018-02-27T08:38:15.083Z,-6.31
2018-02-27T08:39:15.088Z,-6.41
2018-02-27T08:40:15.084Z,-6.24
2018-02-27T08:41:15.098Z,-6.23
2018-02-27T08:42:15.100Z,-6.15
2018-02-27T08:43:15.122Z,-6.07
2018-02-27T08:44:15.184Z,-6.06
2018-02-27T08:45:15.114Z,-6.09
2018-02-27T08:46:15.129Z,-5.97
2018-02-27T08:47:15.140Z,-5.99
2018-02-27T08:48:15.143Z,-5.89
2018-02-27T08:49:15.157Z,-5.92
2018-02-27T08:50:15.147Z,-5.87
2018-02-27T08:51:15.179Z,-5.78
2018-02-27T08:52:15.169Z,-5.73
2018-02-27T08:53:15.174Z,-5.64
2018-02-27T08:54:15.193Z,-5.59
2018-02-27T08:55:15.180Z,-5.60
2018-02-27T08:56:15.194Z,-5.48
2018-02-27T08:57:15.202Z,-5.55
2018-02-27T08:58:15.213Z,-5.43
2018-02-27T08:59:15.218Z,-5.37
2018-02-27T09:00:15.224Z,-5.34
2018-02-27T09:01:15.220Z,-5.21
2018-02-27T09:02:15.236Z,-5.20
2018-02-27T09:03:15.239Z,-5.05
2018-02-27T09:04:15.251Z,-5.13
2018-02-27T09:05:15.261Z,-5.09
2018-02-27T09:06:15.270Z,-4.97
2018-02-27T09:07:15.267Z,-4.95
2018-02-27T09:08:15.278Z,-4.83
2018-02-27T09:09:15.286Z,-4.81
2018-02-27T09:10:15.290Z,-4.80
2018-02-27T09:11:15.297Z,-4.90
2018-02-27T09:12:15.305Z,-4.76
2018-02-27T09:13:15.330Z,-4.67
2018-02-27T09:14:15.326Z,-4.62
2018-02-27T09:15:15.343Z,-4.58
2018-02-27T09:16:15.333Z,-4.55
2018-02-27T09:17:15.346Z,-4.45
2018-02-27T09:18:15.349Z,-4.45
2018-02-27T09:19:15.426Z,-4.31
2018-02-27T09:20:15.372Z,-4.37
2018-02-27T09:21:15.376Z,-4.23
2018-02-27T09:22:15.382Z,-4.23
2018-02-27T09:23:15.393Z,-4.12
2018-02-27T09:24:15.406Z,-4.05
2018-02-27T09:25:15.416Z,-3.94
2018-02-27T09:26:15.423Z,-3.91
2018-02-27T09:27:15.416Z,-3.90
2018-02-27T09:28:15.430Z,-3.83
2018-02-27T09:29:15.441Z,-3.69
2018-02-27T09:30:15.439Z,-3.66
2018-02-27T09:31:15.461Z,-3.56
2018-02-27T09:32:15.467Z,-3.47
2018-02-27T09:33:15.466Z,-3.43
2018-02-27T09:34:15.487Z,-3.40
2018-02-27T09:35:15.486Z,-3.33
2018-02-27T09:36:15.498Z,-3.22
2018-02-27T09:37:15.511Z,-3.29
2018-02-27T09:38:15.588Z,-3.37
2018-02-27T09:39:15.529Z,-3.20
2018-02-27T09:40:15.545Z,-3.26
2018-02-27T09:41:15.543Z,-3.11
2018-02-27T09:42:15.550Z,-3.07
2018-02-27T09:43:15.563Z,-3.09
2018-02-27T09:44:15.564Z,-3.12
2018-02-27T09:45:15.577Z,-3.12
2018-02-27T09:46:15.585Z,-3.14
2018-02-27T09:47:15.601Z,-3.23
2018-02-27T09:48:15.612Z,-3.20
2018-02-27T09:49:15.609Z,-3.26
2018-02-27T09:50:15.628Z,-3.19
2018-02-27T09:51:15.625Z,-3.25
2018-02-27T09:52:15.634Z,-3.25
2018-02-27T09:53:15.648Z,-3.26
2018-02-27T09:54:15.656Z,-3.26
2018-02-27T09:55:15.660Z,-3.20
2018-02-27T09:56:15.676Z,-3.25
2018-02-27T09:57:15.699Z,-3.32
2018-02-27T09:58:15.694Z,-3.20
2018-02-27T09:59:15.702Z,-3.22
2018-02-27T10:00:15.707Z,-3.20
2018-02-27T10:01:15.705Z,-3.20
2018-02-27T10:02:15.734Z,-3.20
2018-02-27T10:03:15.733Z,-3.29
2018-02-27T10:04:15.735Z,-3.12
2018-02-27T10:05:15.742Z,-3.05
2018-02-27T10:06:15.764Z,-3.11
2018-02-27T10:07:15.764Z,-3.09
2018-02-27T10:08:15.770Z,-3.11
2018-02-27T10:09:15.775Z,-3.07
2018-02-27T10:10:15.795Z,-3.07
2018-02-27T10:11:15.798Z,-3.05
2018-02-27T10:12:15.802Z,-3.12
2018-02-27T10:13:15.815Z,-3.07
2018-02-27T10:14:15.824Z,-3.09
2018-02-27T10:15:15.830Z,-3.02
2018-02-27T10:16:15.839Z,-3.12
2018-02-27T10:17:15.835Z,-2.99
2018-02-27T10:18:15.851Z,-3.05
2018-02-27T10:19:15.853Z,-2.96
2018-02-27T10:20:15.879Z,-2.99
2018-02-27T10:21:15.878Z,-3.07
2018-02-27T10:22:15.906Z,-3.08
2018-02-27T10:23:15.890Z,-2.93
2018-02-27T10:24:15.899Z,-2.99
2018-02-27T10:25:15.908Z,-3.04
2018-02-27T10:26:15.916Z,-3.08
2018-02-27T10:27:15.921Z,-3.08
2018-02-27T10:28:15.929Z,-3.08
2018-02-27T10:29:15.952Z,-3.07
2018-02-27T10:30:15.954Z,-2.98
2018-02-27T10:31:15.969Z,-3.01
2018-02-27T10:32:15.972Z,-3.02
2018-02-27T10:33:15.983Z,-2.93
2018-02-27T10:34:15.990Z,-3.02
2018-02-27T10:35:15.998Z,-2.96
2018-02-27T10:36:15.990Z,-2.91
2018-02-27T10:37:16.008Z,-2.94
2018-02-27T10:38:16.013Z,-2.93
2018-02-27T10:39:16.021Z,-2.94
2018-02-27T10:40:16.029Z,-2.89
2018-02-27T10:41:16.042Z,-2.87
2018-02-27T10:42:16.053Z,-2.94
2018-02-27T10:43:16.060Z,-2.99
2018-02-27T10:44:16.062Z,-2.90
2018-02-27T10:45:16.075Z,-2.84
2018-02-27T10:46:16.077Z,-2.91
2018-02-27T10:47:16.100Z,-2.87
2018-02-27T10:48:16.106Z,-2.98
2018-02-27T10:49:16.105Z,-2.93
2018-02-27T10:50:16.122Z,-2.87
2018-02-27T10:51:16.124Z,-3.02
2018-02-27T10:52:16.130Z,-2.87
2018-02-27T10:53:16.147Z,-2.90
2018-02-27T10:54:16.135Z,-3.04
2018-02-27T10:55:16.155Z,-2.99
2018-02-27T10:56:16.158Z,-3.07
2018-02-27T10:57:16.226Z,-3.01
2018-02-27T10:58:16.182Z,-2.99
2018-02-27T10:59:16.182Z,-3.04
2018-02-27T11:00:16.192Z,-2.99
2018-02-27T11:01:16.211Z,-2.96
2018-02-27T11:02:16.208Z,-2.93
2018-02-27T11:03:16.222Z,-2.89
2018-02-27T11:04:16.228Z,-2.94
2018-02-27T11:05:16.233Z,-2.93
2018-02-27T11:06:16.245Z,-2.90
2018-02-27T11:07:16.241Z,-2.91
2018-02-27T11:08:16.249Z,-2.98
2018-02-27T11:09:16.262Z,-2.93
2018-02-27T11:10:16.268Z,-2.93
2018-02-27T11:11:16.277Z,-2.90
2018-02-27T11:12:16.295Z,-2.90
2018-02-27T11:13:16.293Z,-2.93
2018-02-27T11:14:16.314Z,-2.89
2018-02-27T11:15:16.309Z,-2.90
2018-02-27T11:16:16.320Z,-2.96
2018-02-27T11:17:16.339Z,-2.94
2018-02-27T11:18:16.338Z,-2.96
2018-02-27T11:19:16.346Z,-2.90
2018-02-27T11:20:16.353Z,-2.89
2018-02-27T11:21:16.354Z,-2.93
2018-02-27T11:22:16.373Z,-2.98
2018-02-27T11:23:16.369Z,-2.90
2018-02-27T11:24:16.387Z,-2.91
2018-02-27T11:25:16.390Z,-2.83
2018-02-27T11:26:16.399Z,-2.83
2018-02-27T11:27:16.410Z,-2.80
2018-02-27T11:28:16.424Z,-2.80
2018-02-27T11:29:16.424Z,-2.78
2018-02-27T11:30:16.461Z,-2.80
2018-02-27T11:31:16.430Z,-2.73
2018-02-27T11:32:16.451Z,-2.73
2018-02-27T11:33:16.451Z,-2.72
2018-02-27T11:34:16.459Z,-2.69
2018-02-27T11:35:16.475Z,-2.69
2018-02-27T11:36:16.543Z,-2.68
2018-02-27T11:37:16.481Z,-2.68
2018-02-27T11:38:16.512Z,-2.65
2018-02-27T11:39:16.500Z,-2.63
2018-02-27T11:40:16.509Z,-2.69
2018-02-27T11:41:16.523Z,-2.68
2018-02-27T11:42:16.538Z,-2.61
2018-02-27T11:43:16.539Z,-2.57
2018-02-27T11:44:16.546Z,-2.47
2018-02-27T11:45:16.548Z,-2.48
2018-02-27T11:46:16.557Z,-2.47
2018-02-27T11:47:16.558Z,-2.45
2018-02-27T11:48:16.566Z,-2.52
2018-02-27T11:49:16.586Z,-2.52
2018-02-27T11:50:16.604Z,-2.50
2018-02-27T11:51:16.610Z,-2.33
2018-02-27T11:52:16.608Z,-2.36
2018-02-27T11:53:16.616Z,-2.45
2018-02-27T11:54:16.623Z,-2.42
2018-02-27T11:55:16.631Z,-2.36
2018-02-27T11:56:16.637Z,-2.36
2018-02-27T11:57:16.658Z,-2.23
2018-02-27T11:58:16.660Z,-2.32
2018-02-27T11:59:16.673Z,-2.34
2018-02-27T12:00:16.678Z,-2.34
2018-02-27T12:01:16.684Z,-2.25
2018-02-27T12:02:16.699Z,-2.25
2018-02-27T12:03:16.703Z,-2.11
2018-02-27T12:04:16.715Z,-2.26
2018-02-27T12:05:16.726Z,-2.20
2018-02-27T12:06:16.739Z,-2.18
2018-02-27T12:07:16.736Z,-2.15
2018-02-27T12:08:16.764Z,-2.20
2018-02-27T12:09:16.752Z,-2.15
2018-02-27T12:10:16.749Z,-2.15
2018-02-27T12:11:16.772Z,-2.15
2018-02-27T12:12:16.771Z,-2.15
2018-02-27T12:13:16.776Z,-2.11
2018-02-27T12:14:16.796Z,-2.08
2018-02-27T12:15:16.800Z,-2.07
2018-02-27T12:16:16.813Z,-2.11
2018-02-27T12:17:16.818Z,-2.08
2018-02-27T12:18:16.823Z,-2.05
2018-02-27T12:19:16.840Z,-2.00
2018-02-27T12:20:16.864Z,-2.00
2018-02-27T12:21:16.848Z,-1.96
2018-02-27T12:22:16.862Z,-1.84
2018-02-27T12:23:16.875Z,-1.79
2018-02-27T12:24:16.873Z,-1.72
2018-02-27T12:25:16.887Z,-1.76
2018-02-27T12:26:16.893Z,-1.64
2018-02-27T12:27:16.914Z,-1.66
2018-02-27T12:28:16.922Z,-1.58
2018-02-27T12:29:16.972Z,-1.56
2018-02-27T12:30:16.932Z,-1.61
2018-02-27T12:31:16.937Z,-1.51
2018-02-27T12:32:16.958Z,-1.46
2018-02-27T12:33:16.966Z,-1.45
2018-02-27T12:34:16.971Z,-1.42
2018-02-27T12:35:16.977Z,-1.42
2018-02-27T12:36:17.005Z,-1.46
2018-02-27T12:37:16.990Z,-1.48
2018-02-27T12:38:17.006Z,-1.45
2018-02-27T12:39:17.016Z,-1.36
2018-02-27T12:40:17.019Z,-1.35
2018-02-27T12:41:17.037Z,-1.51
2018-02-27T12:42:17.034Z,-1.39
2018-02-27T12:43:17.054Z,-1.48
2018-02-27T12:44:17.057Z,-1.46
2018-02-27T12:45:17.066Z,-1.48